sensor_id;sensor_type;location;lat;lon;timestamp;temperature;humidity
12315;DHT22;23886;46.614;14.276;2022-08-25T00:02:06;20.00;99.90
12315;DHT22;23886;46.614;14.276;2022-08-25T00:04:33;20.00;99.90
12315;DHT22;23886;46.614;14.276;2022-08-25T00:07:01;19.80;99.90
12315;DHT22;23886;46.614;14.276;2022-08-25T00:09:29;19.80;99.90
12315;DHT22;23886;46.614;14.276;2022-08-25T00:11:58;19.70;99.90
12315;DHT22;23886;46.614;14.276;2022-08-25T00:14:32;19.60;99.90
12315;DHT22;23886;46.614;14.276;2022-08-25T00:17:00;19.50;99.90
12315;DHT22;23886;46.614;14.276;2022-08-25T00:19:31;19.60;99.90
12315;DHT22;23886;46.614;14.276;2022-08-25T00:22:00;19.70;99.90
12315;DHT22;23886;46.614;14.276;2022-08-25T00:24:27;19.70;99.90
12315;DHT22;23886;46.614;14.276;2022-08-25T00:26:56;19.70;99.90
12315;DHT22;23886;46.614;14.276;2022-08-25T00:29:27;19.70;99.90
12315;DHT22;23886;46.614;14.276;2022-08-25T00:31:55;19.70;99.90
12315;DHT22;23886;46.614;14.276;2022-08-25T00:34:25;19.60;99.90
12315;DHT22;23886;46.614;14.276;2022-08-25T00:36:57;19.50;99.90
12315;DHT22;23886;46.614;14.276;2022-08-25T00:39:25;19.50;99.90
12315;DHT22;23886;46.614;14.276;2022-08-25T00:41:55;19.40;99.90
12315;DHT22;23886;46.614;14.276;2022-08-25T00:44:23;19.40;99.90
12315;DHT22;23886;46.614;14.276;2022-08-25T00:46:57;19.30;99.90
12315;DHT22;23886;46.614;14.276;2022-08-25T00:49:27;19.30;99.90
12315;DHT22;23886;46.614;14.276;2022-08-25T00:51:59;19.10;99.90
12315;DHT22;23886;46.614;14.276;2022-08-25T00:54:30;19.00;99.90
12315;DHT22;23886;46.614;14.276;2022-08-25T00:56:58;19.00;99.90
12315;DHT22;23886;46.614;14.276;2022-08-25T00:59:26;19.00;99.90
12315;DHT22;23886;46.614;14.276;2022-08-25T01:01:56;19.00;99.90
12315;DHT22;23886;46.614;14.276;2022-08-25T01:04:23;19.10;99.90
12315;DHT22;23886;46.614;14.276;2022-08-25T01:06:51;19.00;99.90
12315;DHT22;23886;46.614;14.276;2022-08-25T01:09:18;19.00;99.90
12315;DHT22;23886;46.614;14.276;2022-08-25T01:11:46;19.00;99.90
12315;DHT22;23886;46.614;14.276;2022-08-25T01:14:16;19.00;99.90
12315;DHT22;23886;46.614;14.276;2022-08-25T01:16:44;18.90;99.90
12315;DHT22;23886;46.614;14.276;2022-08-25T01:19:14;19.00;99.90
12315;DHT22;23886;46.614;14.276;2022-08-25T01:21:45;18.90;99.90
12315;DHT22;23886;46.614;14.276;2022-08-25T01:24:20;18.90;99.90
12315;DHT22;23886;46.614;14.276;2022-08-25T01:26:49;18.80;99.90
12315;DHT22;23886;46.614;14.276;2022-08-25T01:29:16;18.70;99.90
12315;DHT22;23886;46.614;14.276;2022-08-25T01:31:53;18.70;99.90
12315;DHT22;23886;46.614;14.276;2022-08-25T01:34:23;18.80;99.90
12315;DHT22;23886;46.614;14.276;2022-08-25T01:36:53;18.70;99.90
12315;DHT22;23886;46.614;14.276;2022-08-25T01:39:21;18.70;99.90
12315;DHT22;23886;46.614;14.276;2022-08-25T01:42:07;18.70;99.90
12315;DHT22;23886;46.614;14.276;2022-08-25T01:44:36;18.60;99.90
12315;DHT22;23886;46.614;14.276;2022-08-25T01:47:04;18.60;99.90
12315;DHT22;23886;46.614;14.276;2022-08-25T01:49:32;18.60;99.90
12315;DHT22;23886;46.614;14.276;2022-08-25T01:52:05;18.90;99.90
12315;DHT22;23886;46.614;14.276;2022-08-25T01:54:32;18.80;99.90
12315;DHT22;23886;46.614;14.276;2022-08-25T01:56:59;18.70;99.90
12315;DHT22;23886;46.614;14.276;2022-08-25T01:59:27;18.60;99.90
12315;DHT22;23886;46.614;14.276;2022-08-25T02:01:54;18.60;99.90
12315;DHT22;23886;46.614;14.276;2022-08-25T02:04:21;18.50;99.90
12315;DHT22;23886;46.614;14.276;2022-08-25T02:06:48;18.50;99.90
12315;DHT22;23886;46.614;14.276;2022-08-25T02:09:17;18.60;99.90
12315;DHT22;23886;46.614;14.276;2022-08-25T02:11:45;18.60;99.90
12315;DHT22;23886;46.614;14.276;2022-08-25T02:14:13;18.60;99.90
12315;DHT22;23886;46.614;14.276;2022-08-25T02:16:44;18.50;99.90
12315;DHT22;23886;46.614;14.276;2022-08-25T02:19:13;18.50;99.90
12315;DHT22;23886;46.614;14.276;2022-08-25T02:21:41;18.50;99.90
12315;DHT22;23886;46.614;14.276;2022-08-25T02:24:09;18.50;99.90
12315;DHT22;23886;46.614;14.276;2022-08-25T02:26:38;18.50;99.90
12315;DHT22;23886;46.614;14.276;2022-08-25T02:29:06;18.60;99.90
12315;DHT22;23886;46.614;14.276;2022-08-25T02:31:33;18.60;99.90
12315;DHT22;23886;46.614;14.276;2022-08-25T02:34:00;18.60;99.90
12315;DHT22;23886;46.614;14.276;2022-08-25T02:36:28;18.40;99.90
12315;DHT22;23886;46.614;14.276;2022-08-25T02:38:56;18.40;99.90
12315;DHT22;23886;46.614;14.276;2022-08-25T02:41:25;18.50;99.90
12315;DHT22;23886;46.614;14.276;2022-08-25T02:43:53;18.50;99.90
12315;DHT22;23886;46.614;14.276;2022-08-25T02:46:21;18.50;99.90
12315;DHT22;23886;46.614;14.276;2022-08-25T02:48:49;18.50;99.90
12315;DHT22;23886;46.614;14.276;2022-08-25T02:51:18;18.50;99.90
12315;DHT22;23886;46.614;14.276;2022-08-25T02:53:46;18.50;99.90
12315;DHT22;23886;46.614;14.276;2022-08-25T02:56:14;18.50;99.90
12315;DHT22;23886;46.614;14.276;2022-08-25T02:58:43;18.50;99.90
12315;DHT22;23886;46.614;14.276;2022-08-25T03:01:13;18.40;99.90
12315;DHT22;23886;46.614;14.276;2022-08-25T03:03:41;18.30;99.90
12315;DHT22;23886;46.614;14.276;2022-08-25T03:06:10;18.30;99.90
12315;DHT22;23886;46.614;14.276;2022-08-25T03:08:39;18.30;99.90
12315;DHT22;23886;46.614;14.276;2022-08-25T03:11:06;18.20;99.90
12315;DHT22;23886;46.614;14.276;2022-08-25T03:13:34;18.20;99.90
12315;DHT22;23886;46.614;14.276;2022-08-25T03:16:02;17.90;99.90
12315;DHT22;23886;46.614;14.276;2022-08-25T03:18:30;18.00;99.90
12315;DHT22;23886;46.614;14.276;2022-08-25T03:20:58;18.10;99.90
12315;DHT22;23886;46.614;14.276;2022-08-25T03:23:25;18.10;99.90
12315;DHT22;23886;46.614;14.276;2022-08-25T03:25:53;18.00;99.90
12315;DHT22;23886;46.614;14.276;2022-08-25T03:28:37;18.00;99.90
12315;DHT22;23886;46.614;14.276;2022-08-25T03:31:05;18.00;99.90
12315;DHT22;23886;46.614;14.276;2022-08-25T03:33:34;17.90;99.90
12315;DHT22;23886;46.614;14.276;2022-08-25T03:36:01;17.90;99.90
12315;DHT22;23886;46.614;14.276;2022-08-25T03:38:29;17.80;99.90
12315;DHT22;23886;46.614;14.276;2022-08-25T03:40:56;17.80;99.90
12315;DHT22;23886;46.614;14.276;2022-08-25T03:43:23;17.80;99.90
12315;DHT22;23886;46.614;14.276;2022-08-25T03:45:52;17.60;99.90
12315;DHT22;23886;46.614;14.276;2022-08-25T03:48:20;17.70;99.90
12315;DHT22;23886;46.614;14.276;2022-08-25T03:50:50;17.70;99.90
12315;DHT22;23886;46.614;14.276;2022-08-25T03:53:19;17.70;99.90
12315;DHT22;23886;46.614;14.276;2022-08-25T03:55:46;17.50;99.90
12315;DHT22;23886;46.614;14.276;2022-08-25T03:58:13;17.50;99.90
12315;DHT22;23886;46.614;14.276;2022-08-25T04:00:40;17.60;99.90
12315;DHT22;23886;46.614;14.276;2022-08-25T04:03:07;17.60;99.90
12315;DHT22;23886;46.614;14.276;2022-08-25T04:05:34;17.60;99.90
12315;DHT22;23886;46.614;14.276;2022-08-25T04:08:03;17.50;99.90
12315;DHT22;23886;46.614;14.276;2022-08-25T04:10:31;17.30;99.90
12315;DHT22;23886;46.614;14.276;2022-08-25T04:12:59;17.30;99.90
12315;DHT22;23886;46.614;14.276;2022-08-25T04:15:26;17.20;99.90
12315;DHT22;23886;46.614;14.276;2022-08-25T04:17:54;17.30;99.90
12315;DHT22;23886;46.614;14.276;2022-08-25T04:20:21;17.30;99.90
12315;DHT22;23886;46.614;14.276;2022-08-25T04:22:48;17.20;99.90
12315;DHT22;23886;46.614;14.276;2022-08-25T04:25:17;17.30;99.90
12315;DHT22;23886;46.614;14.276;2022-08-25T04:27:43;17.30;99.90
12315;DHT22;23886;46.614;14.276;2022-08-25T04:30:12;17.40;99.90
12315;DHT22;23886;46.614;14.276;2022-08-25T04:32:39;17.30;99.90
12315;DHT22;23886;46.614;14.276;2022-08-25T04:35:06;17.30;99.90
12315;DHT22;23886;46.614;14.276;2022-08-25T04:37:33;17.30;99.90
12315;DHT22;23886;46.614;14.276;2022-08-25T04:40:01;17.30;99.90
12315;DHT22;23886;46.614;14.276;2022-08-25T04:42:31;17.30;99.90
12315;DHT22;23886;46.614;14.276;2022-08-25T04:44:58;17.40;99.90
12315;DHT22;23886;46.614;14.276;2022-08-25T04:47:26;17.30;99.90
12315;DHT22;23886;46.614;14.276;2022-08-25T04:49:53;17.30;99.90
12315;DHT22;23886;46.614;14.276;2022-08-25T04:52:20;17.30;99.90
12315;DHT22;23886;46.614;14.276;2022-08-25T04:54:47;17.30;99.90
12315;DHT22;23886;46.614;14.276;2022-08-25T04:57:14;17.30;99.90
12315;DHT22;23886;46.614;14.276;2022-08-25T04:59:43;17.20;99.90
12315;DHT22;23886;46.614;14.276;2022-08-25T05:02:10;17.20;99.90
12315;DHT22;23886;46.614;14.276;2022-08-25T05:04:37;17.30;99.90
12315;DHT22;23886;46.614;14.276;2022-08-25T05:07:04;17.30;99.90
12315;DHT22;23886;46.614;14.276;2022-08-25T05:09:31;17.30;99.90
12315;DHT22;23886;46.614;14.276;2022-08-25T05:11:59;17.40;99.90
12315;DHT22;23886;46.614;14.276;2022-08-25T05:14:26;17.50;99.90
12315;DHT22;23886;46.614;14.276;2022-08-25T05:16:55;17.40;99.90
12315;DHT22;23886;46.614;14.276;2022-08-25T05:19:23;17.50;99.90
12315;DHT22;23886;46.614;14.276;2022-08-25T05:21:51;17.50;99.90
12315;DHT22;23886;46.614;14.276;2022-08-25T05:24:19;17.50;99.90
12315;DHT22;23886;46.614;14.276;2022-08-25T05:26:46;17.60;99.90
12315;DHT22;23886;46.614;14.276;2022-08-25T05:29:13;17.50;99.90
12315;DHT22;23886;46.614;14.276;2022-08-25T05:31:41;17.50;99.90
12315;DHT22;23886;46.614;14.276;2022-08-25T05:34:11;17.60;99.90
12315;DHT22;23886;46.614;14.276;2022-08-25T05:36:39;17.70;99.90
12315;DHT22;23886;46.614;14.276;2022-08-25T05:39:07;17.70;99.90
12315;DHT22;23886;46.614;14.276;2022-08-25T05:41:35;17.80;99.90
12315;DHT22;23886;46.614;14.276;2022-08-25T05:44:02;17.90;99.90
12315;DHT22;23886;46.614;14.276;2022-08-25T05:46:29;17.80;99.90
12315;DHT22;23886;46.614;14.276;2022-08-25T05:48:56;17.70;99.90
12315;DHT22;23886;46.614;14.276;2022-08-25T05:51:26;17.70;99.90
12315;DHT22;23886;46.614;14.276;2022-08-25T05:53:53;17.70;99.90
12315;DHT22;23886;46.614;14.276;2022-08-25T05:56:20;17.90;99.90
12315;DHT22;23886;46.614;14.276;2022-08-25T05:58:47;18.00;99.90
12315;DHT22;23886;46.614;14.276;2022-08-25T06:01:23;18.00;99.90
12315;DHT22;23886;46.614;14.276;2022-08-25T06:04:07;18.00;99.90
12315;DHT22;23886;46.614;14.276;2022-08-25T06:06:36;18.10;99.90
12315;DHT22;23886;46.614;14.276;2022-08-25T06:09:03;18.20;99.90
12315;DHT22;23886;46.614;14.276;2022-08-25T06:11:34;18.30;99.90
12315;DHT22;23886;46.614;14.276;2022-08-25T06:14:01;18.40;99.90
12315;DHT22;23886;46.614;14.276;2022-08-25T06:16:29;18.50;99.90
12315;DHT22;23886;46.614;14.276;2022-08-25T06:18:56;18.60;99.90
12315;DHT22;23886;46.614;14.276;2022-08-25T06:21:23;18.80;99.90
12315;DHT22;23886;46.614;14.276;2022-08-25T06:23:51;18.90;99.90
12315;DHT22;23886;46.614;14.276;2022-08-25T06:26:18;18.90;99.90
12315;DHT22;23886;46.614;14.276;2022-08-25T06:28:45;18.90;99.90
12315;DHT22;23886;46.614;14.276;2022-08-25T06:31:12;18.90;99.90
12315;DHT22;23886;46.614;14.276;2022-08-25T06:33:39;19.00;99.90
12315;DHT22;23886;46.614;14.276;2022-08-25T06:36:07;19.00;99.90
12315;DHT22;23886;46.614;14.276;2022-08-25T06:38:34;19.20;99.90
12315;DHT22;23886;46.614;14.276;2022-08-25T06:41:03;19.30;99.90
12315;DHT22;23886;46.614;14.276;2022-08-25T06:43:31;19.40;99.90
12315;DHT22;23886;46.614;14.276;2022-08-25T06:46:06;19.40;99.90
12315;DHT22;23886;46.614;14.276;2022-08-25T06:48:33;19.40;99.90
12315;DHT22;23886;46.614;14.276;2022-08-25T06:51:04;19.40;99.90
12315;DHT22;23886;46.614;14.276;2022-08-25T06:53:32;19.40;99.90
12315;DHT22;23886;46.614;14.276;2022-08-25T06:55:59;19.50;99.90
12315;DHT22;23886;46.614;14.276;2022-08-25T06:58:27;19.50;99.90
12315;DHT22;23886;46.614;14.276;2022-08-25T07:00:54;19.60;99.90
12315;DHT22;23886;46.614;14.276;2022-08-25T07:03:21;19.60;99.90
12315;DHT22;23886;46.614;14.276;2022-08-25T07:05:52;19.80;99.90
12315;DHT22;23886;46.614;14.276;2022-08-25T07:08:19;19.80;99.90
12315;DHT22;23886;46.614;14.276;2022-08-25T07:10:46;19.90;99.90
12315;DHT22;23886;46.614;14.276;2022-08-25T07:13:13;19.90;99.90
12315;DHT22;23886;46.614;14.276;2022-08-25T07:15:42;20.00;99.90
12315;DHT22;23886;46.614;14.276;2022-08-25T07:18:10;20.00;99.90
12315;DHT22;23886;46.614;14.276;2022-08-25T07:20:37;20.10;99.90
12315;DHT22;23886;46.614;14.276;2022-08-25T07:23:05;20.20;99.90
12315;DHT22;23886;46.614;14.276;2022-08-25T07:25:33;20.20;99.90
12315;DHT22;23886;46.614;14.276;2022-08-25T07:28:00;20.20;99.90
12315;DHT22;23886;46.614;14.276;2022-08-25T07:30:27;20.30;99.90
12315;DHT22;23886;46.614;14.276;2022-08-25T07:32:56;20.40;99.90
12315;DHT22;23886;46.614;14.276;2022-08-25T07:35:23;20.50;99.90
12315;DHT22;23886;46.614;14.276;2022-08-25T07:37:51;20.60;99.90
12315;DHT22;23886;46.614;14.276;2022-08-25T07:40:23;20.70;99.90
12315;DHT22;23886;46.614;14.276;2022-08-25T07:42:51;20.90;99.90
12315;DHT22;23886;46.614;14.276;2022-08-25T07:45:20;21.10;99.90
12315;DHT22;23886;46.614;14.276;2022-08-25T07:47:55;21.20;99.90
12315;DHT22;23886;46.614;14.276;2022-08-25T07:50:23;21.30;99.90
12315;DHT22;23886;46.614;14.276;2022-08-25T07:52:50;21.40;99.90
12315;DHT22;23886;46.614;14.276;2022-08-25T07:55:17;21.50;99.90
12315;DHT22;23886;46.614;14.276;2022-08-25T07:57:44;21.70;99.90
12315;DHT22;23886;46.614;14.276;2022-08-25T08:00:13;21.90;99.90
12315;DHT22;23886;46.614;14.276;2022-08-25T08:02:41;22.10;99.90
12315;DHT22;23886;46.614;14.276;2022-08-25T08:05:11;22.20;99.90
12315;DHT22;23886;46.614;14.276;2022-08-25T08:07:39;22.30;99.90
12315;DHT22;23886;46.614;14.276;2022-08-25T08:10:08;22.40;99.90
12315;DHT22;23886;46.614;14.276;2022-08-25T08:12:36;22.30;99.90
12315;DHT22;23886;46.614;14.276;2022-08-25T08:15:04;22.30;99.90
12315;DHT22;23886;46.614;14.276;2022-08-25T08:17:31;22.40;99.90
12315;DHT22;23886;46.614;14.276;2022-08-25T08:19:58;22.50;99.90
12315;DHT22;23886;46.614;14.276;2022-08-25T08:22:26;22.60;99.90
12315;DHT22;23886;46.614;14.276;2022-08-25T08:24:54;22.80;99.90
12315;DHT22;23886;46.614;14.276;2022-08-25T08:27:22;23.00;99.90
12315;DHT22;23886;46.614;14.276;2022-08-25T08:29:50;22.90;99.90
12315;DHT22;23886;46.614;14.276;2022-08-25T08:32:18;23.00;99.90
12315;DHT22;23886;46.614;14.276;2022-08-25T08:34:46;23.00;99.90
12315;DHT22;23886;46.614;14.276;2022-08-25T08:37:14;23.10;99.90
12315;DHT22;23886;46.614;14.276;2022-08-25T08:39:42;23.30;99.90
12315;DHT22;23886;46.614;14.276;2022-08-25T08:42:27;23.40;99.90
12315;DHT22;23886;46.614;14.276;2022-08-25T08:45:09;23.40;99.90
12315;DHT22;23886;46.614;14.276;2022-08-25T08:47:48;23.40;99.90
12315;DHT22;23886;46.614;14.276;2022-08-25T08:50:27;23.40;99.90
12315;DHT22;23886;46.614;14.276;2022-08-25T08:52:59;23.50;99.90
12315;DHT22;23886;46.614;14.276;2022-08-25T08:55:31;23.50;99.90
12315;DHT22;23886;46.614;14.276;2022-08-25T08:58:00;23.50;99.90
12315;DHT22;23886;46.614;14.276;2022-08-25T09:00:29;23.70;99.90
12315;DHT22;23886;46.614;14.276;2022-08-25T09:03:02;23.90;99.90
12315;DHT22;23886;46.614;14.276;2022-08-25T09:05:34;24.10;99.90
12315;DHT22;23886;46.614;14.276;2022-08-25T09:08:05;24.30;99.90
12315;DHT22;23886;46.614;14.276;2022-08-25T09:10:43;24.50;99.90
12315;DHT22;23886;46.614;14.276;2022-08-25T09:13:22;24.40;99.90
12315;DHT22;23886;46.614;14.276;2022-08-25T09:15:56;24.10;99.90
12315;DHT22;23886;46.614;14.276;2022-08-25T09:18:49;24.40;99.90
12315;DHT22;23886;46.614;14.276;2022-08-25T09:21:27;24.70;99.90
12315;DHT22;23886;46.614;14.276;2022-08-25T09:24:20;24.90;99.90
12315;DHT22;23886;46.614;14.276;2022-08-25T09:27:01;24.90;99.90
12315;DHT22;23886;46.614;14.276;2022-08-25T09:29:35;24.90;99.90
12315;DHT22;23886;46.614;14.276;2022-08-25T09:32:06;25.30;99.90
12315;DHT22;23886;46.614;14.276;2022-08-25T09:34:34;25.50;99.90
12315;DHT22;23886;46.614;14.276;2022-08-25T09:37:01;25.70;99.90
12315;DHT22;23886;46.614;14.276;2022-08-25T09:39:28;25.80;99.90
12315;DHT22;23886;46.614;14.276;2022-08-25T09:41:58;25.40;99.90
12315;DHT22;23886;46.614;14.276;2022-08-25T09:44:27;25.60;99.90
12315;DHT22;23886;46.614;14.276;2022-08-25T09:47:00;25.60;99.90
12315;DHT22;23886;46.614;14.276;2022-08-25T09:49:35;25.80;99.90
12315;DHT22;23886;46.614;14.276;2022-08-25T09:52:21;25.60;99.90
12315;DHT22;23886;46.614;14.276;2022-08-25T09:54:49;25.70;99.90
12315;DHT22;23886;46.614;14.276;2022-08-25T09:57:36;25.90;99.90
12315;DHT22;23886;46.614;14.276;2022-08-25T10:00:15;26.00;99.20
12315;DHT22;23886;46.614;14.276;2022-08-25T10:02:44;25.90;98.30
12315;DHT22;23886;46.614;14.276;2022-08-25T10:05:21;25.90;99.20
12315;DHT22;23886;46.614;14.276;2022-08-25T10:07:52;25.90;99.20
12315;DHT22;23886;46.614;14.276;2022-08-25T10:10:27;26.00;99.10
12315;DHT22;23886;46.614;14.276;2022-08-25T10:12:56;26.10;98.90
12315;DHT22;23886;46.614;14.276;2022-08-25T10:15:29;26.10;98.40
12315;DHT22;23886;46.614;14.276;2022-08-25T10:18:17;26.10;98.40
12315;DHT22;23886;46.614;14.276;2022-08-25T10:21:00;26.20;98.40
12315;DHT22;23886;46.614;14.276;2022-08-25T10:23:28;26.40;98.20
12315;DHT22;23886;46.614;14.276;2022-08-25T10:25:58;26.60;97.60
12315;DHT22;23886;46.614;14.276;2022-08-25T10:28:33;26.80;97.70
12315;DHT22;23886;46.614;14.276;2022-08-25T10:31:09;27.10;97.50
12315;DHT22;23886;46.614;14.276;2022-08-25T10:33:43;27.20;96.60
12315;DHT22;23886;46.614;14.276;2022-08-25T10:36:20;27.20;96.30
12315;DHT22;23886;46.614;14.276;2022-08-25T10:38:52;27.20;95.80
12315;DHT22;23886;46.614;14.276;2022-08-25T10:41:38;27.20;96.20
12315;DHT22;23886;46.614;14.276;2022-08-25T10:44:14;27.20;96.60
12315;DHT22;23886;46.614;14.276;2022-08-25T10:47:16;27.20;96.60
12315;DHT22;23886;46.614;14.276;2022-08-25T10:49:47;27.20;96.10
12315;DHT22;23886;46.614;14.276;2022-08-25T10:52:20;27.40;96.00
12315;DHT22;23886;46.614;14.276;2022-08-25T10:54:57;27.60;96.10
12315;DHT22;23886;46.614;14.276;2022-08-25T10:57:32;27.80;95.90
12315;DHT22;23886;46.614;14.276;2022-08-25T11:00:05;27.80;94.60
12315;DHT22;23886;46.614;14.276;2022-08-25T11:05:32;27.70;94.60
12315;DHT22;23886;46.614;14.276;2022-08-25T11:08:07;27.90;94.00
12315;DHT22;23886;46.614;14.276;2022-08-25T11:10:41;28.00;93.70
12315;DHT22;23886;46.614;14.276;2022-08-25T11:13:15;27.90;93.60
12315;DHT22;23886;46.614;14.276;2022-08-25T11:15:51;27.90;93.20
12315;DHT22;23886;46.614;14.276;2022-08-25T11:18:19;28.00;93.20
12315;DHT22;23886;46.614;14.276;2022-08-25T11:20:53;28.20;93.10
12315;DHT22;23886;46.614;14.276;2022-08-25T11:23:26;28.20;92.70
12315;DHT22;23886;46.614;14.276;2022-08-25T11:25:59;27.80;92.50
12315;DHT22;23886;46.614;14.276;2022-08-25T11:28:36;28.00;92.40
12315;DHT22;23886;46.614;14.276;2022-08-25T11:31:08;28.30;91.90
12315;DHT22;23886;46.614;14.276;2022-08-25T11:33:35;28.40;91.70
12315;DHT22;23886;46.614;14.276;2022-08-25T11:36:11;28.20;91.30
12315;DHT22;23886;46.614;14.276;2022-08-25T11:38:48;28.40;91.60
12315;DHT22;23886;46.614;14.276;2022-08-25T11:41:24;28.70;90.60
12315;DHT22;23886;46.614;14.276;2022-08-25T11:44:09;28.70;91.20
12315;DHT22;23886;46.614;14.276;2022-08-25T11:47:04;28.70;91.90
12315;DHT22;23886;46.614;14.276;2022-08-25T11:49:50;29.10;91.10
12315;DHT22;23886;46.614;14.276;2022-08-25T11:52:45;29.20;90.50
12315;DHT22;23886;46.614;14.276;2022-08-25T11:55:17;29.20;90.70
12315;DHT22;23886;46.614;14.276;2022-08-25T11:57:46;29.40;89.40
12315;DHT22;23886;46.614;14.276;2022-08-25T12:00:35;29.80;88.50
12315;DHT22;23886;46.614;14.276;2022-08-25T12:06:20;30.80;85.50
12315;DHT22;23886;46.614;14.276;2022-08-25T12:08:53;31.20;84.00
12315;DHT22;23886;46.614;14.276;2022-08-25T12:11:46;31.40;84.60
12315;DHT22;23886;46.614;14.276;2022-08-25T12:14:16;31.60;82.10
12315;DHT22;23886;46.614;14.276;2022-08-25T12:17:05;32.10;82.40
12315;DHT22;23886;46.614;14.276;2022-08-25T12:19:49;32.40;81.20
12315;DHT22;23886;46.614;14.276;2022-08-25T12:22:56;32.10;80.80
12315;DHT22;23886;46.614;14.276;2022-08-25T12:25:41;32.10;82.20
12315;DHT22;23886;46.614;14.276;2022-08-25T12:28:26;33.00;78.90
12315;DHT22;23886;46.614;14.276;2022-08-25T12:31:00;33.10;78.40
12315;DHT22;23886;46.614;14.276;2022-08-25T12:33:40;32.60;77.90
12315;DHT22;23886;46.614;14.276;2022-08-25T12:36:14;32.00;81.00
12315;DHT22;23886;46.614;14.276;2022-08-25T12:38:52;32.20;80.70
12315;DHT22;23886;46.614;14.276;2022-08-25T12:41:21;33.00;78.10
12315;DHT22;23886;46.614;14.276;2022-08-25T12:43:50;33.10;76.70
12315;DHT22;23886;46.614;14.276;2022-08-25T12:46:38;33.70;76.10
12315;DHT22;23886;46.614;14.276;2022-08-25T12:49:14;33.70;74.50
12315;DHT22;23886;46.614;14.276;2022-08-25T12:51:57;33.70;74.40
12315;DHT22;23886;46.614;14.276;2022-08-25T12:54:38;33.40;74.30
12315;DHT22;23886;46.614;14.276;2022-08-25T12:57:22;33.40;75.90
12315;DHT22;23886;46.614;14.276;2022-08-25T12:59:55;32.90;73.70
12315;DHT22;23886;46.614;14.276;2022-08-25T13:06:04;32.00;75.00
12315;DHT22;23886;46.614;14.276;2022-08-25T13:09:00;31.60;76.60
12315;DHT22;23886;46.614;14.276;2022-08-25T13:11:37;31.50;79.10
12315;DHT22;23886;46.614;14.276;2022-08-25T13:14:15;31.40;80.00
12315;DHT22;23886;46.614;14.276;2022-08-25T13:16:52;32.00;80.30
12315;DHT22;23886;46.614;14.276;2022-08-25T13:19:19;32.30;80.50
12315;DHT22;23886;46.614;14.276;2022-08-25T13:21:47;33.10;77.80
12315;DHT22;23886;46.614;14.276;2022-08-25T13:24:18;33.70;76.40
12315;DHT22;23886;46.614;14.276;2022-08-25T13:26:53;34.00;74.50
12315;DHT22;23886;46.614;14.276;2022-08-25T13:29:22;33.50;75.60
12315;DHT22;23886;46.614;14.276;2022-08-25T13:31:52;33.90;75.50
12315;DHT22;23886;46.614;14.276;2022-08-25T13:34:22;33.50;74.60
12315;DHT22;23886;46.614;14.276;2022-08-25T13:36:49;33.90;74.40
12315;DHT22;23886;46.614;14.276;2022-08-25T13:39:35;34.40;71.90
12315;DHT22;23886;46.614;14.276;2022-08-25T13:42:05;35.20;70.10
12315;DHT22;23886;46.614;14.276;2022-08-25T13:44:36;34.80;72.00
12315;DHT22;23886;46.614;14.276;2022-08-25T13:47:06;36.10;70.10
12315;DHT22;23886;46.614;14.276;2022-08-25T13:49:34;37.20;67.60
12315;DHT22;23886;46.614;14.276;2022-08-25T13:52:02;36.30;68.90
12315;DHT22;23886;46.614;14.276;2022-08-25T13:54:37;36.60;67.70
12315;DHT22;23886;46.614;14.276;2022-08-25T13:57:13;36.90;67.70
12315;DHT22;23886;46.614;14.276;2022-08-25T13:59:42;37.30;66.30
12315;DHT22;23886;46.614;14.276;2022-08-25T14:02:11;37.70;64.90
12315;DHT22;23886;46.614;14.276;2022-08-25T14:04:47;37.60;66.40
12315;DHT22;23886;46.614;14.276;2022-08-25T14:07:24;37.60;64.60
12315;DHT22;23886;46.614;14.276;2022-08-25T14:09:54;38.40;62.10
12315;DHT22;23886;46.614;14.276;2022-08-25T14:12:36;38.70;61.60
12315;DHT22;23886;46.614;14.276;2022-08-25T14:15:11;39.00;60.90
12315;DHT22;23886;46.614;14.276;2022-08-25T14:17:40;38.70;60.20
12315;DHT22;23886;46.614;14.276;2022-08-25T14:20:17;38.50;61.90
12315;DHT22;23886;46.614;14.276;2022-08-25T14:22:47;37.30;63.60
12315;DHT22;23886;46.614;14.276;2022-08-25T14:25:15;36.40;66.90
12315;DHT22;23886;46.614;14.276;2022-08-25T14:27:44;36.20;66.20
12315;DHT22;23886;46.614;14.276;2022-08-25T14:30:12;37.20;63.60
12315;DHT22;23886;46.614;14.276;2022-08-25T14:32:39;37.70;62.20
12315;DHT22;23886;46.614;14.276;2022-08-25T14:35:07;38.70;62.10
12315;DHT22;23886;46.614;14.276;2022-08-25T14:37:35;38.00;60.70
12315;DHT22;23886;46.614;14.276;2022-08-25T14:40:03;37.80;62.00
12315;DHT22;23886;46.614;14.276;2022-08-25T14:42:31;36.90;63.40
12315;DHT22;23886;46.614;14.276;2022-08-25T14:44:59;36.20;63.40
12315;DHT22;23886;46.614;14.276;2022-08-25T14:47:26;35.70;65.50
12315;DHT22;23886;46.614;14.276;2022-08-25T14:49:53;34.80;67.80
12315;DHT22;23886;46.614;14.276;2022-08-25T14:52:25;33.90;69.00
12315;DHT22;23886;46.614;14.276;2022-08-25T14:54:53;32.20;74.20
12315;DHT22;23886;46.614;14.276;2022-08-25T14:57:21;31.60;75.40
12315;DHT22;23886;46.614;14.276;2022-08-25T14:59:48;31.10;76.40
12315;DHT22;23886;46.614;14.276;2022-08-25T15:02:19;30.50;77.70
12315;DHT22;23886;46.614;14.276;2022-08-25T15:04:51;30.30;78.60
12315;DHT22;23886;46.614;14.276;2022-08-25T15:07:19;29.70;80.50
12315;DHT22;23886;46.614;14.276;2022-08-25T15:10:05;29.70;81.50
12315;DHT22;23886;46.614;14.276;2022-08-25T15:12:33;29.30;85.30
12315;DHT22;23886;46.614;14.276;2022-08-25T15:15:00;29.40;83.60
12315;DHT22;23886;46.614;14.276;2022-08-25T15:17:29;29.20;85.50
12315;DHT22;23886;46.614;14.276;2022-08-25T15:19:56;29.20;88.80
12315;DHT22;23886;46.614;14.276;2022-08-25T15:22:23;29.00;90.90
12315;DHT22;23886;46.614;14.276;2022-08-25T15:24:50;29.20;89.70
12315;DHT22;23886;46.614;14.276;2022-08-25T15:27:18;29.70;88.40
12315;DHT22;23886;46.614;14.276;2022-08-25T15:29:46;31.10;82.80
12315;DHT22;23886;46.614;14.276;2022-08-25T15:32:13;32.40;79.40
12315;DHT22;23886;46.614;14.276;2022-08-25T15:34:41;33.00;76.90
12315;DHT22;23886;46.614;14.276;2022-08-25T15:37:11;34.00;75.60
12315;DHT22;23886;46.614;14.276;2022-08-25T15:39:39;34.90;73.00
12315;DHT22;23886;46.614;14.276;2022-08-25T15:42:08;35.40;70.90
12315;DHT22;23886;46.614;14.276;2022-08-25T15:44:36;34.20;74.00
12315;DHT22;23886;46.614;14.276;2022-08-25T15:47:04;32.30;82.70
12315;DHT22;23886;46.614;14.276;2022-08-25T15:49:32;32.00;80.10